createdAt,value
2019-03-21T10:42:08.917Z,100
2019-03-21T10:43:38.464Z,100
2019-03-21T10:45:07.968Z,100
2019-03-21T10:46:38.283Z,100
2019-03-21T10:48:10.380Z,100
2019-03-21T10:49:39.973Z,100
2019-03-21T10:51:11.166Z,100
2019-03-21T10:52:42.370Z,100
2019-03-21T10:54:12.843Z,100
2019-03-21T10:55:43.172Z,100
2019-03-21T10:57:13.487Z,100
2019-03-21T10:58:43.064Z,100
2019-03-21T11:00:13.642Z,100
2019-03-21T11:01:43.569Z,100
2019-03-21T11:03:13.902Z,100
2019-03-21T11:04:43.479Z,100
2019-03-21T11:06:12.932Z,100
2019-03-21T11:07:42.360Z,100
2019-03-21T11:09:11.818Z,100
2019-03-21T11:10:41.331Z,100
2019-03-21T11:12:10.770Z,100
2019-03-21T11:13:40.311Z,100
2019-03-21T11:15:09.805Z,100
2019-03-21T11:16:39.246Z,100
2019-03-21T11:18:08.796Z,98.03
2019-03-21T11:19:38.526Z,97.8
2019-03-21T11:21:07.964Z,98.11
2019-03-21T11:22:37.399Z,95.56
2019-03-21T11:24:06.850Z,95.3
2019-03-21T11:25:36.282Z,95.84
2019-03-21T11:27:06.612Z,95.73
2019-03-21T11:28:36.937Z,93.21
2019-03-21T11:30:16.554Z,91.36
2019-03-21T11:31:49.245Z,92.66
2019-03-21T11:33:20.457Z,92.52
2019-03-21T11:34:50.769Z,94.09
2019-03-21T11:36:21.092Z,92.89
2019-03-21T11:37:50.855Z,90.12
2019-03-21T11:39:21.972Z,91.08
2019-03-21T11:40:53.733Z,88.36
2019-03-21T11:42:26.843Z,87.91
2019-03-21T11:43:56.616Z,88.62
2019-03-21T11:45:26.086Z,86.53
2019-03-21T11:46:56.593Z,86.21
2019-03-21T11:48:26.058Z,87.26
2019-03-21T11:49:55.743Z,86.51
2019-03-21T11:51:25.256Z,86.67
2019-03-21T11:52:54.683Z,85.06
2019-03-21T11:54:25.015Z,85.33
2019-03-21T11:55:54.481Z,84.36
2019-03-21T11:57:24.941Z,81.4
2019-03-21T11:58:54.446Z,81.35
2019-03-21T12:00:24.777Z,82.44
2019-03-21T12:01:54.365Z,81
2019-03-21T12:03:24.689Z,81.01
2019-03-21T12:04:54.134Z,79.97
2019-03-21T12:06:23.579Z,78.31
2019-03-21T12:07:53.565Z,75.85
2019-03-21T12:09:23.965Z,76.18
2019-03-21T12:10:53.431Z,76.12
2019-03-21T12:12:22.984Z,76.22
2019-03-21T12:13:52.452Z,77.11
2019-03-21T12:15:21.886Z,78.92
2019-03-21T12:16:51.325Z,78.83
2019-03-21T12:18:20.768Z,77.58
2019-03-21T12:19:50.213Z,76.43
2019-03-21T12:21:19.652Z,78.09
2019-03-21T12:22:49.090Z,76.94
2019-03-21T12:24:19.401Z,75.37
2019-03-21T12:25:48.935Z,75.51
2019-03-21T12:27:18.436Z,76.96
2019-03-21T12:28:47.879Z,75.29
2019-03-21T12:30:17.323Z,75.99
2019-03-21T12:31:46.770Z,77.57
2019-03-21T12:33:16.846Z,76.93
2019-03-21T12:34:46.760Z,75.52
2019-03-21T12:36:17.166Z,76.08
2019-03-21T12:37:46.601Z,76.09
2019-03-21T12:39:16.043Z,73.68
2019-03-21T12:40:45.474Z,75.55
2019-03-21T12:42:14.920Z,74.31
2019-03-21T12:43:44.377Z,74.68
2019-03-21T12:45:13.814Z,74.84
2019-03-21T12:46:43.253Z,74.62
2019-03-21T12:48:12.761Z,72.54
2019-03-21T12:49:42.198Z,72.99
2019-03-21T12:51:13.796Z,73.79
2019-03-21T15:37:39.995Z,64.38
2019-03-21T15:39:09.646Z,64.29
2019-03-21T15:40:39.098Z,64.78
2019-03-21T15:42:08.595Z,64.18
2019-03-21T15:43:38.041Z,64.57
2019-03-21T15:45:26.290Z,64.75
2019-03-21T15:46:55.741Z,64.96
2019-03-21T15:47:36.368Z,64.28
2019-03-21T15:51:49.836Z,65.36
2019-03-21T15:53:19.491Z,65.18
2019-03-21T15:54:50.789Z,65.05
2019-03-21T15:56:20.330Z,64.22
2019-03-21T15:57:51.574Z,64.59
2019-03-21T15:59:21.087Z,65.26
2019-03-21T16:00:50.565Z,64.2
2019-03-21T16:02:20.054Z,65.55
2019-03-21T16:03:49.585Z,65.73
2019-03-21T16:05:21.725Z,65.8
2019-03-21T16:06:52.041Z,66.36
2019-03-21T16:08:22.467Z,65.61
2019-03-21T16:09:53.809Z,65.44
2019-03-21T16:11:23.246Z,65.09
2019-03-21T16:12:53.255Z,64.52
2019-03-21T16:14:23.718Z,65.37
2019-03-21T16:15:53.167Z,65.96
2019-03-21T16:17:22.774Z,66.48
2019-03-21T16:18:52.367Z,65.49
2019-03-21T16:20:22.279Z,66.24
2019-03-21T16:21:51.799Z,66.38
2019-03-21T16:23:23.016Z,66.2
2019-03-21T16:24:54.380Z,66.1
2019-03-21T16:26:24.382Z,65.83
2019-03-21T16:27:53.895Z,66.5
2019-03-21T16:29:23.396Z,66.7
2019-03-21T16:31:10.132Z,67.34
2019-03-21T16:32:42.591Z,67.77
2019-03-21T16:34:13.048Z,67.42
2019-03-21T16:36:40.510Z,67.15
2019-03-21T16:38:12.028Z,67.06
2019-03-21T16:39:44.123Z,67.71
2019-03-21T16:41:14.127Z,68.26
2019-03-21T16:42:43.719Z,68.35
2019-03-21T16:44:21.407Z,68.97
2019-03-21T16:45:52.807Z,69.68
2019-03-21T16:47:23.738Z,70.01
2019-03-21T16:48:55.856Z,70.33
2019-03-21T16:50:26.962Z,70.46
2019-03-21T16:52:05.619Z,70.72
2019-03-21T16:53:39.140Z,71.18
2019-03-21T16:55:12.148Z,71.29
2019-03-21T17:00:54.920Z,74.91
2019-03-21T17:02:24.432Z,76.08
2019-03-21T17:03:53.880Z,77.76
2019-03-21T17:05:23.419Z,78.91
2019-03-21T17:08:40.123Z,81.45
2019-03-21T17:10:09.709Z,82.81
2019-03-21T17:11:40.104Z,84.09
2019-03-21T17:13:11.174Z,85.06
2019-03-21T17:14:42.521Z,86.16
2019-03-21T17:16:11.962Z,86.69
2019-03-21T17:17:42.471Z,87.9
2019-03-21T17:19:12.906Z,88.96
2019-03-21T17:20:43.322Z,89.68
2019-03-21T17:22:13.629Z,90.94
2019-03-21T17:23:43.296Z,92.02
2019-03-21T17:25:12.799Z,93.24
2019-03-21T17:26:42.527Z,94.61
2019-03-21T17:28:12.608Z,96.14
2019-03-21T17:29:42.059Z,97.97
2019-03-21T17:31:11.565Z,98.53
2019-03-21T17:32:41.021Z,99.14
2019-03-21T17:34:10.527Z,100
2019-03-21T17:35:40.059Z,100
2019-03-21T17:37:10.610Z,100
2019-03-21T17:38:40.218Z,100
2019-03-21T17:40:10.180Z,100
2019-03-21T17:41:39.677Z,100
2019-03-21T17:43:09.211Z,100
2019-03-21T17:44:38.714Z,100
2019-03-21T17:46:09.148Z,100
2019-03-21T17:47:38.646Z,100
2019-03-21T17:49:08.126Z,100
2019-03-21T17:50:37.573Z,100
2019-03-21T17:52:07.175Z,100
2019-03-21T17:53:37.592Z,100
2019-03-21T17:55:07.522Z,100
2019-03-21T17:56:37.011Z,100
2019-03-21T17:58:06.468Z,100
2019-03-21T17:59:35.970Z,100
2019-03-21T18:01:26.677Z,100
2019-03-21T18:04:38.254Z,100
2019-03-21T18:06:31.493Z,100
2019-03-21T18:08:05.191Z,100
2019-03-21T18:09:40.441Z,100
2019-03-21T18:11:16.203Z,100
2019-03-21T18:12:49.152Z,100
2019-03-21T18:14:20.455Z,100
2019-03-21T18:15:52.765Z,100
2019-03-21T18:17:24.045Z,100
2019-03-21T18:19:03.157Z,100
2019-03-21T18:20:33.963Z,100
2019-03-21T18:22:04.250Z,100
2019-03-21T18:23:35.046Z,100
2019-03-21T18:25:07.862Z,100
2019-03-21T18:26:38.900Z,100
2019-03-21T18:32:14.390Z,100
2019-03-21T18:33:43.915Z,100
2019-03-21T18:35:13.396Z,100
2019-03-21T18:36:43.000Z,100
2019-03-21T18:38:12.460Z,100
2019-03-21T18:39:41.958Z,100
2019-03-21T18:41:11.400Z,100
2019-03-21T18:42:40.875Z,100
2019-03-21T18:44:10.365Z,100
2019-03-21T18:45:39.896Z,100
2019-03-21T18:47:09.516Z,100
2019-03-21T18:48:41.669Z,100
2019-03-21T18:50:12.140Z,100
2019-03-21T18:51:43.414Z,100
2019-03-21T18:53:13.655Z,100
2019-03-21T18:54:44.869Z,100
2019-03-21T18:56:16.607Z,100
2019-03-21T18:57:47.805Z,100
2019-03-21T18:59:18.137Z,100
2019-03-21T19:00:47.735Z,100
2019-03-21T19:02:17.252Z,100
2019-03-21T19:03:46.680Z,100
2019-03-21T19:05:16.187Z,100
2019-03-21T19:06:45.708Z,100
2019-03-21T19:08:15.251Z,100
2019-03-21T19:09:44.684Z,100
2019-03-21T19:11:14.125Z,100
2019-03-21T19:12:43.665Z,100
2019-03-21T19:14:13.175Z,100
2019-03-21T19:15:42.932Z,100
2019-03-21T19:17:14.139Z,100
2019-03-21T19:18:43.638Z,100
2019-03-21T19:20:13.089Z,100
2019-03-21T19:21:42.528Z,100
2019-03-21T19:23:11.963Z,100
2019-03-21T19:24:42.292Z,100
2019-03-21T19:26:11.881Z,100
2019-03-21T19:27:41.718Z,100
2019-03-21T19:29:11.177Z,100
2019-03-21T19:30:40.704Z,100
2019-03-21T19:32:12.056Z,100
2019-03-21T19:33:42.050Z,100
2019-03-21T19:35:12.365Z,100
2019-03-21T19:36:42.689Z,100
2019-03-21T19:38:12.250Z,100
2019-03-21T19:39:42.742Z,100
2019-03-21T19:41:12.215Z,100
2019-03-21T19:42:42.609Z,100
2019-03-21T19:44:14.695Z,100
2019-03-21T19:45:45.025Z,100
2019-03-21T19:47:30.679Z,100
2019-03-21T19:49:01.961Z,100
2019-03-21T19:50:31.443Z,100
2019-03-21T19:52:00.948Z,100
2019-03-21T19:53:33.988Z,100
2019-03-21T19:55:03.487Z,100
2019-03-21T19:56:33.399Z,100
2019-03-21T19:58:02.871Z,100
2019-03-21T19:59:35.880Z,100
2019-03-21T20:01:05.325Z,100
2019-03-21T20:02:34.758Z,100
2019-03-21T20:04:04.202Z,100
2019-03-21T20:05:33.647Z,100
2019-03-21T20:07:03.979Z,100
2019-03-21T20:08:34.365Z,100
2019-03-21T20:10:04.986Z,100
2019-03-21T20:11:34.616Z,100
2019-03-21T20:13:04.126Z,100
2019-03-21T20:14:35.406Z,100
2019-03-21T20:16:05.413Z,100
2019-03-21T20:17:34.933Z,100
2019-03-21T20:19:05.255Z,100
2019-03-21T20:20:36.365Z,100
2019-03-21T20:22:05.804Z,100
2019-03-21T20:23:35.254Z,100
2019-03-21T20:25:04.692Z,100
2019-03-21T20:26:35.882Z,100
2019-03-21T20:28:05.328Z,100
2019-03-21T20:29:35.795Z,100
2019-03-21T20:31:06.380Z,100
2019-03-21T20:32:35.890Z,100
2019-03-21T20:34:05.343Z,100
2019-03-21T20:35:34.854Z,100
2019-03-21T20:37:04.283Z,100
2019-03-21T20:38:33.802Z,100
2019-03-21T20:40:03.245Z,100
2019-03-21T20:41:32.680Z,100
2019-03-21T20:43:02.210Z,100
2019-03-21T20:44:33.401Z,100
2019-03-21T20:46:03.630Z,100
2019-03-21T20:47:35.458Z,100
2019-03-21T20:49:06.692Z,100
2019-03-21T20:50:36.191Z,100
2019-03-21T20:52:05.669Z,100
2019-03-21T20:53:37.243Z,100
2019-03-21T20:55:07.582Z,100
2019-03-21T20:56:37.167Z,100
2019-03-21T20:58:06.611Z,100
2019-03-21T20:59:36.129Z,100
2019-03-21T21:01:08.294Z,100
2019-03-21T21:02:37.893Z,100
2019-03-21T21:04:08.181Z,100
2019-03-21T21:05:37.640Z,100
2019-03-21T21:07:07.088Z,100
2019-03-21T21:08:36.527Z,100
2019-03-21T21:10:07.826Z,100
2019-03-21T21:11:40.433Z,100
2019-03-21T21:13:11.208Z,100
2019-03-21T21:14:41.605Z,100
2019-03-21T21:16:11.081Z,100
2019-03-21T21:17:43.465Z,100
2019-03-21T21:19:12.959Z,100
2019-03-21T21:20:43.332Z,100
2019-03-21T21:22:12.773Z,100
2019-03-21T21:23:43.095Z,100
2019-03-21T21:25:12.862Z,100
2019-03-21T21:26:42.380Z,100
2019-03-21T21:28:11.880Z,100
2019-03-21T21:29:43.320Z,100
2019-03-21T21:31:15.454Z,100
2019-03-21T21:32:46.056Z,100
2019-03-21T21:34:15.803Z,100
2019-03-21T21:35:46.141Z,100
2019-03-21T21:37:16.532Z,100
2019-03-21T21:38:47.902Z,100
2019-03-21T21:40:18.296Z,100
2019-03-21T21:41:47.883Z,100
2019-03-21T21:43:17.348Z,100
2019-03-21T21:44:46.938Z,100
2019-03-21T21:46:17.329Z,100
2019-03-21T21:47:46.883Z,100
2019-03-21T21:49:18.378Z,100
2019-03-21T21:50:47.892Z,100
2019-03-21T21:52:18.210Z,100
2019-03-21T21:53:48.533Z,100
2019-03-21T21:55:18.946Z,100
2019-03-21T21:56:48.466Z,100
2019-03-21T21:58:18.075Z,100
2019-03-21T21:59:47.581Z,100
2019-03-21T22:01:17.098Z,100
2019-03-21T22:02:47.492Z,100
2019-03-21T22:04:17.900Z,100
2019-03-21T22:05:48.294Z,100
2019-03-21T22:07:20.446Z,100
2019-03-21T22:08:49.910Z,100
2019-03-21T22:10:20.302Z,100
2019-03-21T22:11:50.844Z,100
2019-03-21T22:13:20.605Z,100
2019-03-21T22:14:50.049Z,100
2019-03-21T22:16:20.373Z,100
2019-03-21T22:17:49.811Z,100
2019-03-21T22:19:20.126Z,100
2019-03-21T22:20:49.567Z,100
2019-03-21T22:22:19.608Z,100
2019-03-21T22:23:49.093Z,100
2019-03-21T22:25:19.485Z,100
2019-03-21T22:26:49.829Z,100
2019-03-21T22:28:19.330Z,100
2019-03-21T22:29:48.768Z,100
2019-03-21T22:31:18.294Z,100
2019-03-21T22:32:47.813Z,100
2019-03-21T22:34:19.304Z,100
2019-03-21T22:35:49.632Z,100
2019-03-21T22:37:19.988Z,100
2019-03-21T22:38:49.483Z,100
2019-03-21T22:40:18.932Z,100
2019-03-21T22:41:48.381Z,100
2019-03-21T22:43:18.707Z,100
2019-03-21T22:44:48.212Z,100
2019-03-21T22:46:17.720Z,100
2019-03-21T22:47:50.807Z,100
2019-03-21T22:49:20.373Z,100
2019-03-21T22:50:51.248Z,100
2019-03-21T22:52:20.688Z,100
2019-03-21T22:53:50.202Z,100
2019-03-21T22:55:19.655Z,100
2019-03-21T22:56:51.815Z,100
2019-03-21T22:58:32.218Z,100
2019-03-21T23:00:02.610Z,100
2019-03-21T23:01:32.073Z,100
2019-03-21T23:03:02.535Z,100
2019-03-21T23:04:31.980Z,100
2019-03-21T23:06:01.486Z,100
2019-03-21T23:07:31.895Z,100
2019-03-21T23:09:01.323Z,100
2019-03-21T23:10:31.663Z,100
2019-03-21T23:12:02.060Z,100
2019-03-21T23:13:32.474Z,100
2019-03-21T23:15:01.976Z,100
2019-03-21T23:16:32.446Z,100
2019-03-21T23:18:01.898Z,100
2019-03-21T23:19:31.401Z,100
2019-03-21T23:21:00.872Z,100
2019-03-21T23:22:30.404Z,100
2019-03-21T23:23:59.946Z,100
2019-03-21T23:25:29.719Z,100
2019-03-21T23:26:59.264Z,100
2019-03-21T23:28:28.764Z,100
2019-03-21T23:29:59.085Z,100
2019-03-21T23:31:28.533Z,100
2019-03-21T23:32:57.976Z,100
2019-03-21T23:34:29.254Z,100
2019-03-21T23:35:58.695Z,100
2019-03-21T23:37:28.127Z,100
2019-03-21T23:38:57.569Z,100
2019-03-21T23:40:27.004Z,100
2019-03-21T23:41:56.451Z,100
2019-03-21T23:43:26.768Z,100
2019-03-21T23:44:56.214Z,100
2019-03-21T23:46:25.916Z,100
2019-03-21T23:47:57.253Z,100
2019-03-21T23:49:28.465Z,100
2019-03-21T23:50:58.844Z,100
2019-03-21T23:52:29.169Z,100
2019-03-21T23:53:58.707Z,100
2019-03-21T23:55:28.207Z,100
2019-03-21T23:57:09.168Z,100
2019-03-21T23:58:39.490Z,100
